createdAt,value
2022-12-04T00:00:01.571Z,3.99
2022-12-04T00:01:02.213Z,3.99
2022-12-04T00:02:00.770Z,3.8
2022-12-04T00:04:00.921Z,3.8
2022-12-04T00:05:01.917Z,3.8
2022-12-04T00:06:00.733Z,3.8
2022-12-04T00:07:00.911Z,3.8
2022-12-04T00:08:00.759Z,3.8
2022-12-04T00:09:00.535Z,3.8
2022-12-04T00:10:00.567Z,3.8
2022-12-04T00:11:01.970Z,3.8
2022-12-04T00:12:00.547Z,3.8
2022-12-04T00:13:01.566Z,3.8
2022-12-04T00:14:06.568Z,3.8
2022-12-04T00:15:24.723Z,3.8
2022-12-04T00:16:01.869Z,3.8
2022-12-04T00:17:01.577Z,3.8
2022-12-04T00:18:00.540Z,4.08
2022-12-04T00:19:02.097Z,4.08
2022-12-04T00:20:00.689Z,4.08
2022-12-04T00:21:00.441Z,4.08
2022-12-04T00:22:04.220Z,4.08
2022-12-04T00:23:00.926Z,4.08
2022-12-04T00:24:00.652Z,4.08
2022-12-04T00:26:00.571Z,4.08
2022-12-04T00:27:00.544Z,4.08
2022-12-04T00:28:02.350Z,4.08
2022-12-04T00:29:00.749Z,3.99
2022-12-04T00:30:03.296Z,3.99
2022-12-04T00:31:00.514Z,3.99
2022-12-04T00:32:02.263Z,3.99
2022-12-04T00:33:00.553Z,3.99
2022-12-04T00:34:01.837Z,3.99
2022-12-04T00:35:00.796Z,3.99
2022-12-04T00:36:02.411Z,3.99
2022-12-04T00:37:00.787Z,3.99
2022-12-04T00:38:02.076Z,3.99
2022-12-04T00:39:01.290Z,3.99
2022-12-04T00:40:02.329Z,3.99
2022-12-04T00:41:00.640Z,3.99
2022-12-04T00:42:01.386Z,3.99
2022-12-04T00:43:01.779Z,3.99
2022-12-04T00:44:00.903Z,3.99
2022-12-04T00:45:01.423Z,3.99
2022-12-04T00:46:03.132Z,3.99
2022-12-04T00:47:02.261Z,3.99
2022-12-04T00:48:00.741Z,3.99
2022-12-04T00:49:02.186Z,3.99
2022-12-04T00:50:00.633Z,3.99
2022-12-04T00:51:01.826Z,3.99
2022-12-04T00:52:01.225Z,3.99
2022-12-04T00:53:00.867Z,3.99
2022-12-04T00:54:01.743Z,3.99
2022-12-04T00:55:00.666Z,3.99
2022-12-04T00:56:00.763Z,3.99
2022-12-04T00:57:02.047Z,3.99
2022-12-04T00:58:00.745Z,3.99
2022-12-04T00:59:01.684Z,3.75
2022-12-04T01:00:03.260Z,3.75
2022-12-04T01:01:05.849Z,3.75
2022-12-04T01:02:00.920Z,3.75
2022-12-04T01:04:00.730Z,3.75
2022-12-04T01:05:01.436Z,3.75
2022-12-04T01:06:00.951Z,3.75
2022-12-04T01:07:05.045Z,3.75
2022-12-04T01:09:01.168Z,3.75
2022-12-04T01:10:02.401Z,3.75
2022-12-04T01:11:00.614Z,3.75
2022-12-04T01:12:01.960Z,3.75
2022-12-04T01:13:01.917Z,3.75
2022-12-04T01:14:00.916Z,3.75
2022-12-04T01:15:01.197Z,3.75
2022-12-04T01:16:02.333Z,3.75
2022-12-04T01:17:01.407Z,3.75
2022-12-04T01:18:00.551Z,3.75
2022-12-04T01:19:00.642Z,3.75
2022-12-04T01:20:00.738Z,3.75
2022-12-04T01:21:01.558Z,3.75
2022-12-04T01:22:01.786Z,3.75
2022-12-04T01:23:02.183Z,3.75
2022-12-04T01:24:01.372Z,3.75
2022-12-04T01:25:01.007Z,3.75
2022-12-04T01:26:02.248Z,3.75
2022-12-04T01:27:02.239Z,3.9
2022-12-04T01:28:01.943Z,3.9
2022-12-04T01:29:01.624Z,3.9
2022-12-04T01:30:01.971Z,3.9
2022-12-04T01:31:00.818Z,3.9
2022-12-04T01:32:01.383Z,3.9
2022-12-04T01:33:00.975Z,3.9
2022-12-04T01:34:04.724Z,3.9
2022-12-04T01:35:01.694Z,3.9
2022-12-04T01:36:01.417Z,3.9
2022-12-04T01:37:01.908Z,3.9
2022-12-04T01:38:02.376Z,3.9
2022-12-04T01:39:02.091Z,3.9
2022-12-04T01:40:02.431Z,3.9
2022-12-04T01:41:01.776Z,3.9
2022-12-04T01:42:00.850Z,3.9
2022-12-04T01:43:01.214Z,3.9
2022-12-04T01:44:01.484Z,3.9
2022-12-04T01:45:05.214Z,3.9
2022-12-04T01:46:01.365Z,3.9
2022-12-04T01:47:02.105Z,3.9
2022-12-04T01:48:12.136Z,3.9
2022-12-04T01:49:01.956Z,3.9
2022-12-04T01:50:00.954Z,3.9
2022-12-04T01:52:02.136Z,3.9
2022-12-04T01:53:01.254Z,3.9
2022-12-04T01:54:02.117Z,3.9
2022-12-04T01:55:02.205Z,3.9
2022-12-04T01:56:01.594Z,3.9
2022-12-04T01:57:02.194Z,4.03
2022-12-04T01:58:01.052Z,3.99
2022-12-04T01:59:02.401Z,3.99
2022-12-04T02:00:02.973Z,3.99
2022-12-04T02:01:07.996Z,3.99
2022-12-04T02:02:01.620Z,3.99
2022-12-04T02:04:02.096Z,3.99
2022-12-04T02:05:01.045Z,3.99
2022-12-04T02:06:02.136Z,3.99
2022-12-04T02:07:01.750Z,3.99
2022-12-04T02:08:01.438Z,3.99
2022-12-04T02:09:02.117Z,3.99
2022-12-04T02:10:02.505Z,3.99
2022-12-04T02:11:02.430Z,3.99
2022-12-04T02:12:02.524Z,3.99
2022-12-04T02:13:01.066Z,3.99
2022-12-04T02:14:01.315Z,4.41
2022-12-04T02:15:02.564Z,4.41
2022-12-04T02:16:02.217Z,4.41
2022-12-04T02:17:01.145Z,4.41
2022-12-04T02:18:02.118Z,4.41
2022-12-04T02:19:02.194Z,4.41
2022-12-04T02:20:01.847Z,4.41
2022-12-04T02:21:01.882Z,4.41
2022-12-04T02:22:02.166Z,4.41
2022-12-04T02:23:02.404Z,4.41
2022-12-04T02:24:00.966Z,4.41
2022-12-04T02:25:01.067Z,4.41
2022-12-04T02:26:02.154Z,4.41
2022-12-04T02:27:01.372Z,4.41
2022-12-04T02:28:01.603Z,4.41
2022-12-04T02:29:01.370Z,4.41
2022-12-04T02:30:01.818Z,4.41
2022-12-04T02:31:00.540Z,4.41
2022-12-04T02:32:01.425Z,4.41
2022-12-04T02:33:00.927Z,4.41
2022-12-04T02:34:01.399Z,4.41
2022-12-04T02:35:00.473Z,4.41
2022-12-04T02:36:00.599Z,4.2
2022-12-04T02:37:02.340Z,4.2
2022-12-04T02:38:00.977Z,4.2
2022-12-04T02:39:00.625Z,4.2
2022-12-04T02:40:00.889Z,4.2
2022-12-04T02:41:00.539Z,4.2
2022-12-04T02:42:00.560Z,4.2
2022-12-04T02:43:03.168Z,4.2
2022-12-04T02:44:00.595Z,4.2
2022-12-04T02:45:00.569Z,4.2
2022-12-04T02:46:00.631Z,4.2
2022-12-04T02:47:01.970Z,4.2
2022-12-04T02:48:00.673Z,4.2
2022-12-04T02:50:02.077Z,4.06
2022-12-04T02:51:00.597Z,4.06
2022-12-04T02:52:00.522Z,4.06
2022-12-04T02:53:02.088Z,4.06
2022-12-04T02:54:12.120Z,4.06
2022-12-04T02:55:08.061Z,4.06
2022-12-04T02:56:00.541Z,4.06
2022-12-04T02:57:01.438Z,4.06
2022-12-04T02:58:00.537Z,4.06
2022-12-04T02:59:02.378Z,4.06
2022-12-04T03:01:00.768Z,4.06
2022-12-04T03:02:00.643Z,4.06
2022-12-04T03:03:00.637Z,4.06
2022-12-04T03:04:00.601Z,4.06
2022-12-04T03:05:00.771Z,4.75
2022-12-04T03:06:00.489Z,4.75
2022-12-04T03:07:00.576Z,4.75
2022-12-04T03:08:00.650Z,4.75
2022-12-04T03:09:00.476Z,4.75
2022-12-04T03:10:00.463Z,4.75
2022-12-04T03:11:00.542Z,4.75
2022-12-04T03:12:01.727Z,4.75
2022-12-04T03:13:00.510Z,4.75
2022-12-04T03:14:00.678Z,4.75
2022-12-04T03:15:00.544Z,4.75
2022-12-04T03:16:01.435Z,4.75
2022-12-04T03:17:00.606Z,4.59
2022-12-04T03:18:00.910Z,4.59
2022-12-04T03:19:00.525Z,4.59
2022-12-04T03:20:02.013Z,4.59
2022-12-04T03:21:00.582Z,4.59
2022-12-04T03:23:00.657Z,4.59
2022-12-04T03:24:02.157Z,4.59
2022-12-04T03:25:00.548Z,4.59
2022-12-04T03:26:01.250Z,4.59
2022-12-04T03:27:00.623Z,4.59
2022-12-04T03:28:02.459Z,4.07
2022-12-04T03:29:00.649Z,4.07
2022-12-04T03:30:00.745Z,4.07
2022-12-04T03:31:00.508Z,4.07
2022-12-04T03:32:00.478Z,4.07
2022-12-04T03:33:00.446Z,4.07
2022-12-04T03:34:00.579Z,4.07
2022-12-04T03:35:00.798Z,4.07
2022-12-04T03:36:00.614Z,4.07
2022-12-04T03:37:07.432Z,4.07
2022-12-04T03:38:00.490Z,4.07
2022-12-04T03:39:00.626Z,4.07
2022-12-04T03:40:00.618Z,4.07
2022-12-04T03:41:00.459Z,4.07
2022-12-04T03:42:00.641Z,4.07
2022-12-04T03:43:00.710Z,4.07
2022-12-04T03:44:00.717Z,4.07
2022-12-04T03:45:02.019Z,4.07
2022-12-04T03:46:00.725Z,4.07
2022-12-04T03:47:00.777Z,4.47
2022-12-04T03:48:01.750Z,4.35
2022-12-04T03:49:00.532Z,4.35
2022-12-04T03:50:00.527Z,4.35
2022-12-04T03:52:00.572Z,4.35
2022-12-04T03:53:00.792Z,4.35
2022-12-04T03:54:01.397Z,4.35
2022-12-04T03:55:00.635Z,4.35
2022-12-04T03:56:00.654Z,4.35
2022-12-04T03:58:00.531Z,4.35
2022-12-04T03:59:00.954Z,4.35
2022-12-04T04:00:02.453Z,4.35
2022-12-04T04:01:00.959Z,4.35
2022-12-04T04:02:00.756Z,4.44
2022-12-04T04:04:00.918Z,4.44
2022-12-04T04:05:00.530Z,4.44
2022-12-04T04:06:00.462Z,4.44
2022-12-04T04:07:00.656Z,4.44
2022-12-04T04:08:01.060Z,4.44
2022-12-04T04:09:00.755Z,4.44
2022-12-04T04:10:01.532Z,4.44
2022-12-04T04:11:00.640Z,4.44
2022-12-04T04:12:00.533Z,4.44
2022-12-04T04:13:00.470Z,4.44
2022-12-04T04:14:00.574Z,4.44
2022-12-04T04:15:00.763Z,4.44
2022-12-04T04:16:01.605Z,4.44
2022-12-04T04:17:00.604Z,4.44
2022-12-04T04:18:02.369Z,4.44
2022-12-04T04:19:01.784Z,4.44
2022-12-04T04:20:00.474Z,4.44
2022-12-04T04:21:01.655Z,4.44
2022-12-04T04:22:00.915Z,4.44
2022-12-04T04:23:01.044Z,4.44
2022-12-04T04:24:00.677Z,4.44
2022-12-04T04:25:00.596Z,4.44
2022-12-04T04:26:00.501Z,4.44
2022-12-04T04:27:01.754Z,4.44
2022-12-04T04:28:00.610Z,4.44
2022-12-04T04:29:01.942Z,4.44
2022-12-04T04:30:00.563Z,4.44
2022-12-04T04:31:00.633Z,4.44
2022-12-04T04:32:00.865Z,4.44
2022-12-04T04:33:00.507Z,4.44
2022-12-04T04:34:01.058Z,4.44
2022-12-04T04:35:02.029Z,4.44
2022-12-04T04:36:00.718Z,4.44
2022-12-04T04:38:00.472Z,4.44
2022-12-04T04:39:01.592Z,4.44
2022-12-04T04:40:02.383Z,4.44
2022-12-04T04:41:01.871Z,4.44
2022-12-04T04:42:00.609Z,4.44
2022-12-04T04:43:01.681Z,4.44
2022-12-04T04:44:00.644Z,4.44
2022-12-04T04:45:00.577Z,4.44
2022-12-04T04:46:00.617Z,4.44
2022-12-04T04:47:00.640Z,4.37
2022-12-04T04:48:00.608Z,4.37
2022-12-04T04:49:00.609Z,4.37
2022-12-04T04:50:00.604Z,4.37
2022-12-04T04:51:00.708Z,4.37
2022-12-04T04:52:00.493Z,4.37
2022-12-04T04:53:00.503Z,4.37
2022-12-04T04:54:01.378Z,4.37
2022-12-04T04:55:00.575Z,4.37
2022-12-04T04:56:00.486Z,4.37
2022-12-04T04:57:00.482Z,4.37
2022-12-04T04:58:01.079Z,4.37
2022-12-04T04:59:02.094Z,4.37
2022-12-04T05:00:01.380Z,4.37
2022-12-04T05:01:00.746Z,4.37
2022-12-04T05:02:01.719Z,4.37
2022-12-04T05:03:00.635Z,4.37
2022-12-04T05:04:01.955Z,4.37
2022-12-04T05:05:01.898Z,4.37
2022-12-04T05:06:01.124Z,4.37
2022-12-04T05:07:00.606Z,4.37
2022-12-04T05:08:01.876Z,4.37
2022-12-04T05:09:00.702Z,4.37
2022-12-04T05:10:02.209Z,4.37
2022-12-04T05:11:00.465Z,4.37
2022-12-04T05:12:00.539Z,4.37
2022-12-04T05:13:00.564Z,4.37
2022-12-04T05:14:00.504Z,4.37
2022-12-04T05:15:01.093Z,4.37
2022-12-04T05:16:00.922Z,4.37
2022-12-04T05:17:02.145Z,4.37
2022-12-04T05:18:00.464Z,4.37
2022-12-04T05:19:00.754Z,4.37
2022-12-04T05:20:00.906Z,4.37
2022-12-04T05:21:00.509Z,4.37
2022-12-04T05:22:00.961Z,4.37
2022-12-04T05:23:00.700Z,4.37
2022-12-04T05:24:00.648Z,4.37
2022-12-04T05:25:01.795Z,4.37
2022-12-04T05:26:00.473Z,4.37
2022-12-04T05:27:01.410Z,4.37
2022-12-04T05:28:00.923Z,4.37
2022-12-04T05:29:01.348Z,4.37
2022-12-04T05:30:00.739Z,4.37
2022-12-04T05:31:00.649Z,4.37
2022-12-04T05:32:00.489Z,4.37
2022-12-04T05:33:01.503Z,4.37
2022-12-04T05:34:00.771Z,4.37
2022-12-04T05:35:06.378Z,4.37
2022-12-04T05:36:00.588Z,4.37
2022-12-04T05:37:00.752Z,4.37
2022-12-04T05:38:01.878Z,4.37
2022-12-04T05:39:00.637Z,4.37
2022-12-04T05:40:01.328Z,4.37
2022-12-04T05:41:00.547Z,4.37
2022-12-04T05:42:01.129Z,4.37
2022-12-04T05:43:00.487Z,4.76
2022-12-04T05:44:00.525Z,4.76
2022-12-04T05:45:01.384Z,4.76
2022-12-04T05:46:01.457Z,4.96
2022-12-04T05:47:00.577Z,4.96
2022-12-04T05:48:00.680Z,4.96
2022-12-04T05:49:00.549Z,4.96
2022-12-04T05:50:01.205Z,4.96
2022-12-04T05:51:00.899Z,4.96
2022-12-04T05:52:00.713Z,4.96
2022-12-04T05:53:00.762Z,4.96
2022-12-04T05:54:00.904Z,4.96
2022-12-04T05:55:00.518Z,4.96
2022-12-04T05:56:01.630Z,4.96
2022-12-04T05:57:00.521Z,4.96
2022-12-04T05:58:01.505Z,4.96
2022-12-04T05:59:00.761Z,4.96
2022-12-04T06:00:01.265Z,4.96
2022-12-04T06:01:00.467Z,4.96
2022-12-04T06:02:00.936Z,4.96
2022-12-04T06:03:01.372Z,4.96
2022-12-04T06:04:00.852Z,4.96
2022-12-04T06:05:00.459Z,4.96
2022-12-04T06:06:00.483Z,4.96
2022-12-04T06:07:00.494Z,4.96
2022-12-04T06:09:00.589Z,4.96
2022-12-04T06:10:00.567Z,4.96
2022-12-04T06:11:00.876Z,4.96
2022-12-04T06:12:00.570Z,4.96
2022-12-04T06:13:01.154Z,4.96
2022-12-04T06:14:00.609Z,4.96
2022-12-04T06:15:01.185Z,4.96
2022-12-04T06:16:00.514Z,4.96
2022-12-04T06:17:00.506Z,4.96
2022-12-04T06:18:00.717Z,4.96
2022-12-04T06:19:00.455Z,4.96
2022-12-04T06:20:05.378Z,4.96
2022-12-04T06:21:00.759Z,4.96
2022-12-04T06:22:01.011Z,4.96
2022-12-04T06:23:01.664Z,4.96
2022-12-04T06:24:00.631Z,4.96
2022-12-04T06:25:01.661Z,4.96
2022-12-04T06:26:06.686Z,4.96
2022-12-04T06:27:26.622Z,4.96
2022-12-04T06:28:00.490Z,4.96
2022-12-04T06:29:01.741Z,4.96
2022-12-04T06:30:00.512Z,4.96
2022-12-04T06:31:00.756Z,4.96
2022-12-04T06:32:00.654Z,4.96
2022-12-04T06:33:00.585Z,4.96
2022-12-04T06:34:00.520Z,4.96
2022-12-04T06:35:00.459Z,4.96
2022-12-04T06:36:00.478Z,4.96
2022-12-04T06:38:00.977Z,4.84
2022-12-04T06:39:00.498Z,4.84
2022-12-04T06:40:00.605Z,4.84
2022-12-04T06:41:00.502Z,4.84
2022-12-04T06:42:01.083Z,4.84
2022-12-04T06:43:00.589Z,4.97
2022-12-04T06:44:02.109Z,4.97
2022-12-04T06:45:00.488Z,4.97
2022-12-04T06:46:00.720Z,4.97
2022-12-04T06:47:00.908Z,4.97
2022-12-04T06:48:00.468Z,4.97
2022-12-04T06:49:00.602Z,4.97
2022-12-04T06:50:01.763Z,4.97
2022-12-04T06:51:00.727Z,4.97
2022-12-04T06:52:00.580Z,4.97
2022-12-04T06:53:06.608Z,4.97
2022-12-04T06:54:01.595Z,4.97
2022-12-04T06:55:01.554Z,4.97
2022-12-04T06:56:00.452Z,4.97
2022-12-04T06:57:00.551Z,4.97
2022-12-04T06:58:00.633Z,4.97
2022-12-04T06:59:00.653Z,4.97
2022-12-04T07:00:01.181Z,4.97
2022-12-04T07:01:00.718Z,4.97
2022-12-04T07:02:00.786Z,4.97
2022-12-04T07:03:00.538Z,4.97
2022-12-04T07:05:00.738Z,4.97
2022-12-04T07:06:00.499Z,4.97
2022-12-04T07:07:01.057Z,4.97
2022-12-04T07:08:00.637Z,4.97
2022-12-04T07:09:00.495Z,4.97
2022-12-04T07:10:00.783Z,4.97
2022-12-04T07:11:00.485Z,4.97
2022-12-04T07:12:00.467Z,4.97
2022-12-04T07:13:00.498Z,4.97
2022-12-04T07:14:00.522Z,4.97
2022-12-04T07:15:00.673Z,4.97
2022-12-04T07:16:00.518Z,4.97
2022-12-04T07:17:01.161Z,4.97
2022-12-04T07:18:00.563Z,4.97
2022-12-04T07:19:00.592Z,4.97
2022-12-04T07:20:01.128Z,4.97
2022-12-04T07:21:00.524Z,4.97
2022-12-04T07:22:00.657Z,4.97
2022-12-04T07:23:06.899Z,4.97
2022-12-04T07:24:00.478Z,4.97
2022-12-04T07:25:00.853Z,4.97
2022-12-04T07:26:00.478Z,4.97
2022-12-04T07:27:00.469Z,4.97
2022-12-04T07:28:02.050Z,4.97
2022-12-04T07:29:00.611Z,4.97
2022-12-04T07:30:00.843Z,4.97
2022-12-04T07:31:00.590Z,4.97
2022-12-04T07:32:01.002Z,5.07
2022-12-04T07:33:00.654Z,5.07
2022-12-04T07:34:01.149Z,5.07
2022-12-04T07:35:00.524Z,5.07
2022-12-04T07:36:00.644Z,5.07
2022-12-04T07:37:00.505Z,5.07
2022-12-04T07:38:00.661Z,5
2022-12-04T07:39:00.665Z,5
2022-12-04T07:40:00.773Z,5
2022-12-04T07:41:00.537Z,5
2022-12-04T07:42:01.537Z,5
2022-12-04T07:43:00.680Z,5
2022-12-04T07:44:00.460Z,5
2022-12-04T07:45:00.588Z,5
2022-12-04T07:46:00.619Z,5
2022-12-04T07:47:00.443Z,5
2022-12-04T07:48:00.537Z,5
2022-12-04T07:49:00.652Z,5
2022-12-04T07:50:00.748Z,5
2022-12-04T07:51:00.541Z,5
2022-12-04T07:52:04.744Z,5.11
2022-12-04T07:53:00.511Z,5.11
2022-12-04T07:54:03.780Z,5.11
2022-12-04T07:55:00.480Z,5.11
2022-12-04T07:56:00.458Z,5.11
2022-12-04T07:57:00.437Z,5.11
2022-12-04T07:58:00.561Z,5.11
2022-12-04T07:59:00.555Z,5.11
2022-12-04T08:00:01.330Z,5.11
2022-12-04T08:01:00.622Z,5.11
2022-12-04T08:02:00.895Z,5.11
2022-12-04T08:03:00.527Z,5.11
2022-12-04T08:04:00.802Z,5.11
2022-12-04T08:05:00.601Z,5.11
2022-12-04T08:06:00.451Z,5.11
2022-12-04T08:07:00.617Z,5.11
2022-12-04T08:08:05.010Z,5.11
2022-12-04T08:09:09.575Z,5.11
2022-12-04T08:10:00.493Z,5.11
2022-12-04T08:11:00.488Z,5.11
2022-12-04T08:12:00.667Z,5.11
2022-12-04T08:13:00.411Z,5.11
2022-12-04T08:14:00.649Z,5.11
2022-12-04T08:15:00.668Z,5.11
2022-12-04T08:16:00.604Z,5.11
2022-12-04T08:17:00.684Z,5.11
2022-12-04T08:18:00.549Z,5.11
2022-12-04T08:19:00.923Z,5.11
2022-12-04T08:20:00.529Z,5.11
2022-12-04T08:21:00.476Z,5.11
2022-12-04T08:22:00.907Z,5.11
2022-12-04T08:23:00.876Z,5.11
2022-12-04T08:24:01.895Z,5.11
2022-12-04T08:25:00.738Z,5.11
2022-12-04T08:26:00.494Z,5.11
2022-12-04T08:27:00.514Z,5.11
2022-12-04T08:28:00.991Z,5.11
2022-12-04T08:29:00.684Z,5.11
2022-12-04T08:30:01.019Z,5.11
2022-12-04T08:31:00.662Z,5.35
2022-12-04T08:32:00.512Z,5.35
2022-12-04T08:33:00.712Z,5.35
2022-12-04T08:34:00.796Z,5.35
2022-12-04T08:35:00.629Z,5.35
2022-12-04T08:36:00.758Z,5.35
2022-12-04T08:37:00.778Z,5.35
2022-12-04T08:38:01.609Z,5.41
2022-12-04T08:39:00.775Z,5.41
2022-12-04T08:40:00.594Z,5.41
2022-12-04T08:41:00.585Z,5.41
2022-12-04T08:43:00.470Z,5.41
2022-12-04T08:44:00.453Z,5.41
2022-12-04T08:45:00.545Z,5.41
2022-12-04T08:46:00.518Z,5.41
2022-12-04T08:47:00.434Z,5.41
2022-12-04T08:48:00.526Z,5.41
2022-12-04T08:49:00.445Z,5.41
2022-12-04T08:50:00.460Z,5.41
2022-12-04T08:51:00.468Z,5.41
2022-12-04T08:52:03.777Z,5.41
2022-12-04T08:53:00.445Z,5.41
2022-12-04T08:54:00.638Z,5.41
2022-12-04T08:55:00.689Z,5.41
2022-12-04T08:56:00.590Z,5.41
2022-12-04T08:57:00.500Z,5.41
2022-12-04T08:58:00.563Z,5.41
2022-12-04T08:59:00.650Z,5.41
2022-12-04T09:00:01.326Z,5.41
2022-12-04T09:01:01.068Z,5.41
2022-12-04T09:02:00.635Z,5.41
2022-12-04T09:04:00.530Z,5.41
2022-12-04T09:05:00.465Z,5.41
2022-12-04T09:06:00.609Z,5.41
2022-12-04T09:07:00.649Z,5.41
2022-12-04T09:08:00.623Z,5.41
2022-12-04T09:09:00.478Z,5.35
2022-12-04T09:10:01.052Z,5.35
2022-12-04T09:11:00.468Z,5.35
2022-12-04T09:12:00.616Z,5.35
2022-12-04T09:13:03.380Z,5.35
2022-12-04T09:14:00.475Z,5.35
2022-12-04T09:15:00.530Z,5.35
2022-12-04T09:16:00.774Z,5.35
2022-12-04T09:17:00.417Z,5.35
2022-12-04T09:18:01.643Z,5.35
2022-12-04T09:19:00.494Z,5.35
2022-12-04T09:20:01.350Z,5.35
2022-12-04T09:21:00.710Z,5.35
2022-12-04T09:22:00.976Z,5.35
2022-12-04T09:23:04.735Z,5.35
2022-12-04T09:24:00.956Z,5.35
2022-12-04T09:25:00.550Z,5.35
2022-12-04T09:26:00.838Z,5.35
2022-12-04T09:27:00.834Z,5.35
2022-12-04T09:28:00.732Z,5.35
2022-12-04T09:29:00.700Z,5.35
2022-12-04T09:30:00.690Z,5.86
2022-12-04T09:31:00.525Z,5.86
2022-12-04T09:32:00.521Z,5.86
2022-12-04T09:33:00.641Z,5.86
2022-12-04T09:34:00.552Z,5.86
2022-12-04T09:35:00.476Z,5.86
2022-12-04T09:36:00.692Z,5.86
2022-12-04T09:37:00.500Z,5.86
2022-12-04T09:38:00.784Z,5.86
2022-12-04T09:39:00.727Z,5.86
2022-12-04T09:40:00.983Z,5.86
2022-12-04T09:41:00.441Z,5.86
2022-12-04T09:42:00.891Z,5.86
2022-12-04T09:43:00.792Z,5.86
2022-12-04T09:44:01.023Z,5.86
2022-12-04T09:45:02.176Z,5.86
2022-12-04T09:46:00.697Z,5.86
2022-12-04T09:47:00.757Z,5.86
2022-12-04T09:48:00.593Z,5.86
2022-12-04T09:49:00.456Z,5.86
2022-12-04T09:50:00.609Z,5.86
2022-12-04T09:51:00.598Z,5.86
2022-12-04T09:52:00.506Z,5.86
2022-12-04T09:53:00.445Z,5.86
2022-12-04T09:54:00.495Z,6.09
2022-12-04T09:55:00.525Z,6.09
2022-12-04T09:56:00.825Z,6.09
2022-12-04T09:57:00.500Z,6.09
2022-12-04T09:58:02.325Z,6.09
2022-12-04T09:59:00.507Z,6.09
2022-12-04T10:00:01.037Z,6.09
2022-12-04T10:01:00.495Z,6.09
2022-12-04T10:02:01.963Z,6.09
2022-12-04T10:03:00.620Z,6.09
2022-12-04T10:04:06.113Z,6.09
2022-12-04T10:05:00.424Z,6.09
2022-12-04T10:06:00.652Z,6.09
2022-12-04T10:07:00.540Z,6.09
2022-12-04T10:08:00.606Z,6.09
2022-12-04T10:09:00.555Z,6.09
2022-12-04T10:10:01.552Z,6.09
2022-12-04T10:11:00.462Z,6.09
2022-12-04T10:12:00.738Z,5.92
2022-12-04T10:13:00.679Z,5.92
2022-12-04T10:14:00.403Z,5.92
2022-12-04T10:15:00.457Z,5.92
2022-12-04T10:16:00.538Z,5.92
2022-12-04T10:17:00.486Z,5.92
2022-12-04T10:18:00.640Z,5.92
2022-12-04T10:19:00.563Z,5.92
2022-12-04T10:20:00.491Z,5.92
2022-12-04T10:21:00.461Z,5.92
2022-12-04T10:22:00.698Z,5.92
2022-12-04T10:23:00.562Z,5.92
2022-12-04T10:24:00.715Z,5.92
2022-12-04T10:25:02.106Z,5.92
2022-12-04T10:26:00.579Z,5.92
2022-12-04T10:27:00.548Z,5.92
2022-12-04T10:28:00.504Z,5.92
2022-12-04T10:29:01.243Z,5.92
2022-12-04T10:30:00.957Z,6.51
2022-12-04T10:31:00.625Z,6.51
2022-12-04T10:32:00.726Z,6.51
2022-12-04T10:33:01.197Z,6.51
2022-12-04T10:34:00.480Z,6.51
2022-12-04T10:35:00.572Z,6.51
2022-12-04T10:36:00.485Z,6.51
2022-12-04T10:37:00.550Z,6.51
2022-12-04T10:38:00.683Z,6.51
2022-12-04T10:39:00.564Z,6.51
2022-12-04T10:40:02.524Z,6.51
2022-12-04T10:41:00.490Z,6.51
2022-12-04T10:42:00.519Z,6.51
2022-12-04T10:43:00.532Z,6.51
2022-12-04T10:44:00.609Z,6.42
2022-12-04T10:45:00.462Z,6.42
2022-12-04T10:46:00.669Z,6.42
2022-12-04T10:47:00.659Z,6.42
2022-12-04T10:48:00.525Z,6.42
2022-12-04T10:49:00.461Z,6.42
2022-12-04T10:50:00.509Z,6.42
2022-12-04T10:51:00.635Z,6.42
2022-12-04T10:52:03.706Z,6.42
2022-12-04T10:53:00.531Z,6.42
2022-12-04T10:54:00.561Z,6.42
2022-12-04T10:55:00.657Z,6.42
2022-12-04T10:56:01.457Z,6.42
2022-12-04T10:57:00.589Z,6.42
2022-12-04T10:58:00.749Z,6.42
2022-12-04T10:59:00.565Z,6.42
2022-12-04T11:00:02.104Z,6.42
2022-12-04T11:01:00.552Z,6.42
2022-12-04T11:02:06.336Z,6.42
2022-12-04T11:03:00.570Z,6.42
2022-12-04T11:04:00.766Z,6.42
2022-12-04T11:05:00.559Z,6.42
2022-12-04T11:06:00.498Z,6.42
2022-12-04T11:07:06.597Z,6.38
2022-12-04T11:08:00.508Z,6.38
2022-12-04T11:09:00.423Z,6.38
2022-12-04T11:10:01.262Z,6.38
2022-12-04T11:11:00.426Z,6.38
2022-12-04T11:12:00.441Z,6.38
2022-12-04T11:13:00.485Z,6.38
2022-12-04T11:14:00.768Z,6.48
2022-12-04T11:15:00.849Z,6.48
2022-12-04T11:16:01.396Z,6.48
2022-12-04T11:17:00.534Z,6.48
2022-12-04T11:18:00.591Z,6.48
2022-12-04T11:19:00.509Z,6.48
2022-12-04T11:20:00.619Z,6.48
2022-12-04T11:21:00.582Z,6.48
2022-12-04T11:22:00.852Z,6.48
2022-12-04T11:23:00.684Z,6.48
2022-12-04T11:24:00.798Z,6.48
2022-12-04T11:25:00.469Z,6.48
2022-12-04T11:26:05.538Z,6.45
2022-12-04T11:27:00.568Z,6.45
2022-12-04T11:28:00.559Z,6.45
2022-12-04T11:29:00.937Z,6.45
2022-12-04T11:30:00.581Z,6.45
2022-12-04T11:31:00.509Z,6.45
2022-12-04T11:32:07.118Z,6.51
2022-12-04T11:33:00.477Z,6.51
2022-12-04T11:34:00.893Z,6.51
2022-12-04T11:35:00.427Z,6.51
2022-12-04T11:36:00.524Z,6.51
2022-12-04T11:37:00.607Z,6.51
2022-12-04T11:38:00.548Z,6.51
2022-12-04T11:39:01.209Z,6.51
2022-12-04T11:40:00.710Z,6.51
2022-12-04T11:41:00.448Z,6.51
2022-12-04T11:42:00.585Z,6.51
2022-12-04T11:43:00.534Z,6.51
2022-12-04T11:44:00.959Z,6.51
2022-12-04T11:45:00.846Z,6.51
2022-12-04T11:46:00.455Z,6.51
2022-12-04T11:47:00.515Z,6.51
2022-12-04T11:48:00.511Z,6.51
2022-12-04T11:49:00.468Z,6.51
2022-12-04T11:50:01.224Z,6.51
2022-12-04T11:51:00.596Z,6.51
2022-12-04T11:52:00.498Z,6.51
2022-12-04T11:53:00.447Z,6.51
2022-12-04T11:54:00.709Z,6.51
2022-12-04T11:55:00.512Z,6.51
2022-12-04T11:56:00.984Z,6.51
2022-12-04T11:57:00.558Z,6.51
2022-12-04T11:58:00.442Z,6.51
2022-12-04T11:59:00.500Z,6.51
2022-12-04T12:00:01.187Z,6.51
2022-12-04T12:01:00.621Z,6.51
2022-12-04T12:02:01.198Z,6.51
2022-12-04T12:03:00.625Z,6.51
2022-12-04T12:04:00.762Z,6.71
2022-12-04T12:05:00.489Z,6.71
2022-12-04T12:06:00.457Z,6.71
2022-12-04T12:07:00.703Z,6.71
2022-12-04T12:09:00.674Z,6.71
2022-12-04T12:10:00.594Z,6.71
2022-12-04T12:11:00.538Z,6.71
2022-12-04T12:12:00.910Z,6.71
2022-12-04T12:13:00.427Z,6.71
2022-12-04T12:14:00.597Z,6.71
2022-12-04T12:15:01.011Z,6.71
2022-12-04T12:16:00.735Z,6.71
2022-12-04T12:17:00.688Z,6.93
2022-12-04T12:18:00.768Z,6.93
2022-12-04T12:19:00.852Z,6.93
2022-12-04T12:20:00.664Z,6.93
2022-12-04T12:21:00.499Z,6.93
2022-12-04T12:22:05.210Z,6.93
2022-12-04T12:23:00.868Z,6.93
2022-12-04T12:24:00.646Z,6.93
2022-12-04T12:25:00.643Z,6.93
2022-12-04T12:26:00.547Z,7.24
2022-12-04T12:27:00.645Z,7.24
2022-12-04T12:28:00.562Z,7.24
2022-12-04T12:29:00.967Z,7.24
2022-12-04T12:30:00.573Z,7.24
2022-12-04T12:32:00.538Z,7.24
2022-12-04T12:33:00.452Z,7.24
2022-12-04T12:34:00.613Z,7.24
2022-12-04T12:35:00.512Z,7.24
2022-12-04T12:36:00.470Z,7.24
2022-12-04T12:37:01.044Z,7.24
2022-12-04T12:38:00.546Z,7.24
2022-12-04T12:39:00.559Z,7.24
2022-12-04T12:40:00.611Z,7.24
2022-12-04T12:41:00.396Z,7.24
2022-12-04T12:42:00.496Z,7.24
2022-12-04T12:43:00.489Z,7.24
2022-12-04T12:44:00.556Z,7.24
2022-12-04T12:45:00.650Z,7.24
2022-12-04T12:46:00.682Z,7.24
2022-12-04T12:47:00.468Z,7.24
2022-12-04T12:48:00.547Z,7.24
2022-12-04T12:49:00.450Z,7.24
2022-12-04T12:50:01.059Z,7.24
2022-12-04T12:51:22.161Z,7.24
2022-12-04T12:52:00.454Z,7.24
2022-12-04T12:53:00.758Z,7.24
2022-12-04T12:54:00.680Z,7.24
2022-12-04T12:55:00.501Z,7.24
2022-12-04T12:56:00.681Z,7.24
2022-12-04T12:57:00.465Z,7.24
2022-12-04T12:58:04.698Z,7.24
2022-12-04T12:59:00.512Z,7.24
2022-12-04T13:00:00.900Z,7.24
2022-12-04T13:01:01.082Z,7.24
2022-12-04T13:02:01.123Z,7.24
2022-12-04T13:03:00.478Z,7.24
2022-12-04T13:04:00.540Z,7.24
2022-12-04T13:05:00.452Z,7.24
2022-12-04T13:06:00.631Z,7.24
2022-12-04T13:07:00.488Z,7.24
2022-12-04T13:08:00.567Z,7.24
2022-12-04T13:09:00.400Z,7.24
2022-12-04T13:10:00.515Z,7.24
2022-12-04T13:11:00.415Z,7.28
2022-12-04T13:12:00.625Z,7.28
2022-12-04T13:13:00.420Z,7.28
2022-12-04T13:14:00.526Z,7.28
2022-12-04T13:15:00.503Z,7.47
2022-12-04T13:16:00.659Z,7.47
2022-12-04T13:17:00.802Z,7.47
2022-12-04T13:18:01.045Z,7.47
2022-12-04T13:19:00.759Z,7.47
2022-12-04T13:20:04.176Z,7.47
2022-12-04T13:21:00.682Z,7.47
2022-12-04T13:22:00.671Z,7.47
2022-12-04T13:23:00.948Z,7.47
2022-12-04T13:24:00.591Z,7.47
2022-12-04T13:25:00.437Z,7.47
2022-12-04T13:26:00.434Z,7.47
2022-12-04T13:27:00.537Z,7.47
2022-12-04T13:28:00.597Z,7.47
2022-12-04T13:29:00.938Z,7.47
2022-12-04T13:30:00.555Z,7.47
2022-12-04T13:31:00.503Z,7.47
2022-12-04T13:32:00.620Z,7.47
2022-12-04T13:33:00.464Z,7.47
2022-12-04T13:34:00.773Z,7.47
2022-12-04T13:35:00.529Z,7.47
2022-12-04T13:36:00.539Z,7.47
2022-12-04T13:37:00.463Z,7.47
2022-12-04T13:38:01.836Z,7.47
2022-12-04T13:39:00.595Z,7.47
2022-12-04T13:40:00.880Z,7.47
2022-12-04T13:41:00.459Z,7.47